sensor_id;sensor_type;location;lat;lon;timestamp;P1;P2;P0
62778;PMS7003;48821;48.796;2.396;2022-11-15T00:00:14;5.25;3.50;2.75
62778;PMS7003;48821;48.796;2.396;2022-11-15T00:01:24;7.75;7.25;5.00
62778;PMS7003;48821;48.796;2.396;2022-11-15T00:02:35;8.50;6.75;4.75
62778;PMS7003;48821;48.796;2.396;2022-11-15T00:03:45;5.75;3.75;2.75
62778;PMS7003;48821;48.796;2.396;2022-11-15T00:04:56;5.50;5.50;4.75
62778;PMS7003;48821;48.796;2.396;2022-11-15T00:06:06;8.00;7.00;3.50
62778;PMS7003;48821;48.796;2.396;2022-11-15T00:07:17;6.50;5.75;4.00
62778;PMS7003;48821;48.796;2.396;2022-11-15T00:08:30;3.50;3.50;3.50
62778;PMS7003;48821;48.796;2.396;2022-11-15T00:09:41;7.00;7.00;4.00
62778;PMS7003;48821;48.796;2.396;2022-11-15T00:10:55;8.75;7.00;4.00
62778;PMS7003;48821;48.796;2.396;2022-11-15T00:12:07;5.25;5.25;4.00
62778;PMS7003;48821;48.796;2.396;2022-11-15T00:13:17;4.50;4.50;3.50
62778;PMS7003;48821;48.796;2.396;2022-11-15T00:14:27;6.75;5.75;5.00
62778;PMS7003;48821;48.796;2.396;2022-11-15T00:15:38;2.00;2.00;1.00
62778;PMS7003;48821;48.796;2.396;2022-11-15T00:16:50;4.00;4.00;3.25
62778;PMS7003;48821;48.796;2.396;2022-11-15T00:18:00;7.00;4.00;3.25
62778;PMS7003;48821;48.796;2.396;2022-11-15T00:19:10;9.00;4.50;3.75
62778;PMS7003;48821;48.796;2.396;2022-11-15T00:20:21;4.75;4.75;4.00
62778;PMS7003;48821;48.796;2.396;2022-11-15T00:21:31;4.50;3.25;2.25
62778;PMS7003;48821;48.796;2.396;2022-11-15T00:22:41;7.00;7.00;4.00
62778;PMS7003;48821;48.796;2.396;2022-11-15T00:23:52;5.25;5.25;4.00
62778;PMS7003;48821;48.796;2.396;2022-11-15T00:25:02;4.50;4.50;3.00
62778;PMS7003;48821;48.796;2.396;2022-11-15T00:26:13;8.75;6.25;3.75
62778;PMS7003;48821;48.796;2.396;2022-11-15T00:27:25;6.75;4.00;4.00
62778;PMS7003;48821;48.796;2.396;2022-11-15T00:28:35;5.25;4.50;4.00
62778;PMS7003;48821;48.796;2.396;2022-11-15T00:29:45;6.75;4.25;4.00
62778;PMS7003;48821;48.796;2.396;2022-11-15T00:31:06;6.75;6.75;4.00
62778;PMS7003;48821;48.796;2.396;2022-11-15T00:32:18;5.25;5.25;3.75
62778;PMS7003;48821;48.796;2.396;2022-11-15T00:33:28;4.00;4.00;3.00
62778;PMS7003;48821;48.796;2.396;2022-11-15T00:34:39;7.25;5.00;4.50
62778;PMS7003;48821;48.796;2.396;2022-11-15T00:35:49;6.25;4.25;3.75
62778;PMS7003;48821;48.796;2.396;2022-11-15T00:36:59;4.00;4.00;2.75
62778;PMS7003;48821;48.796;2.396;2022-11-15T00:38:10;7.50;6.00;4.50
62778;PMS7003;48821;48.796;2.396;2022-11-15T00:39:20;7.50;5.50;4.00
62778;PMS7003;48821;48.796;2.396;2022-11-15T00:40:30;6.50;5.25;4.00
62778;PMS7003;48821;48.796;2.396;2022-11-15T00:41:41;6.75;6.75;6.00
62778;PMS7003;48821;48.796;2.396;2022-11-15T00:42:51;4.75;4.75;4.00
62778;PMS7003;48821;48.796;2.396;2022-11-15T00:44:01;7.00;7.00;5.75
62778;PMS7003;48821;48.796;2.396;2022-11-15T07:42:43;6.00;6.00;5.25
62778;PMS7003;48821;48.796;2.396;2022-11-15T07:44:02;7.00;6.50;5.00
62778;PMS7003;48821;48.796;2.396;2022-11-15T07:45:13;10.50;7.00;6.00
62778;PMS7003;48821;48.796;2.396;2022-11-15T07:46:23;4.50;4.25;3.50
62778;PMS7003;48821;48.796;2.396;2022-11-15T07:47:33;6.00;6.00;4.50
62778;PMS7003;48821;48.796;2.396;2022-11-15T07:48:44;6.00;5.00;4.50
62778;PMS7003;48821;48.796;2.396;2022-11-15T07:49:54;5.00;5.00;4.50
62778;PMS7003;48821;48.796;2.396;2022-11-15T07:51:04;7.50;6.50;5.75
62778;PMS7003;48821;48.796;2.396;2022-11-15T07:52:14;5.75;5.75;5.00
62778;PMS7003;48821;48.796;2.396;2022-11-15T07:53:25;6.00;5.00;4.25
62778;PMS7003;48821;48.796;2.396;2022-11-15T07:54:35;6.25;6.00;5.00
62778;PMS7003;48821;48.796;2.396;2022-11-15T07:55:45;7.75;5.50;4.00
62778;PMS7003;48821;48.796;2.396;2022-11-15T07:56:56;4.75;4.75;4.00
62778;PMS7003;48821;48.796;2.396;2022-11-15T07:58:10;3.25;3.00;3.00
62778;PMS7003;48821;48.796;2.396;2022-11-15T07:59:22;9.50;5.50;4.50
62778;PMS7003;48821;48.796;2.396;2022-11-15T08:00:32;6.00;5.25;4.75
62778;PMS7003;48821;48.796;2.396;2022-11-15T08:01:43;7.00;4.00;2.75
62778;PMS7003;48821;48.796;2.396;2022-11-15T08:03:00;6.50;6.50;4.25
62778;PMS7003;48821;48.796;2.396;2022-11-15T08:04:15;4.25;4.00;3.00
62778;PMS7003;48821;48.796;2.396;2022-11-15T08:05:25;4.75;3.25;3.00
62778;PMS7003;48821;48.796;2.396;2022-11-15T08:06:36;7.50;4.25;2.75
62778;PMS7003;48821;48.796;2.396;2022-11-15T08:07:46;7.50;4.25;2.75
62778;PMS7003;48821;48.796;2.396;2022-11-15T08:08:57;5.00;3.75;3.00
62778;PMS7003;48821;48.796;2.396;2022-11-15T08:10:07;5.00;4.25;3.50
62778;PMS7003;48821;48.796;2.396;2022-11-15T08:11:18;2.50;2.50;2.25
62778;PMS7003;48821;48.796;2.396;2022-11-15T08:12:28;5.25;3.50;2.50
62778;PMS7003;48821;48.796;2.396;2022-11-15T08:13:38;4.25;4.25;3.25
62778;PMS7003;48821;48.796;2.396;2022-11-15T08:14:49;4.25;4.25;3.25
62778;PMS7003;48821;48.796;2.396;2022-11-15T08:16:00;5.00;3.25;2.75
62778;PMS7003;48821;48.796;2.396;2022-11-15T08:17:12;4.00;3.25;1.75
62778;PMS7003;48821;48.796;2.396;2022-11-15T08:18:23;6.75;4.25;3.00
62778;PMS7003;48821;48.796;2.396;2022-11-15T08:19:33;2.75;2.25;2.25
62778;PMS7003;48821;48.796;2.396;2022-11-15T08:20:44;3.00;2.50;1.75
62778;PMS7003;48821;48.796;2.396;2022-11-15T08:21:54;3.25;3.00;2.50
62778;PMS7003;48821;48.796;2.396;2022-11-15T08:23:05;4.25;2.50;2.25
62778;PMS7003;48821;48.796;2.396;2022-11-15T08:24:16;3.50;2.25;2.00
62778;PMS7003;48821;48.796;2.396;2022-11-15T08:25:27;3.75;1.50;1.25
62778;PMS7003;48821;48.796;2.396;2022-11-15T08:26:39;2.50;2.50;2.50
62778;PMS7003;48821;48.796;2.396;2022-11-15T08:27:51;4.00;3.00;2.00
62778;PMS7003;48821;48.796;2.396;2022-11-15T08:29:02;7.25;4.00;2.50
62778;PMS7003;48821;48.796;2.396;2022-11-15T08:30:12;2.50;2.50;1.75
62778;PMS7003;48821;48.796;2.396;2022-11-15T08:31:23;6.00;3.00;2.00
62778;PMS7003;48821;48.796;2.396;2022-11-15T08:32:33;5.00;2.50;2.00
62778;PMS7003;48821;48.796;2.396;2022-11-15T08:33:44;3.00;3.00;2.00
62778;PMS7003;48821;48.796;2.396;2022-11-15T08:34:55;3.75;2.50;2.00
62778;PMS7003;48821;48.796;2.396;2022-11-15T08:36:05;3.75;3.75;3.00
62778;PMS7003;48821;48.796;2.396;2022-11-15T08:37:16;3.25;2.75;2.75
62778;PMS7003;48821;48.796;2.396;2022-11-15T08:38:26;4.00;1.75;0.75
62778;PMS7003;48821;48.796;2.396;2022-11-15T08:39:38;3.00;3.00;2.75
62778;PMS7003;48821;48.796;2.396;2022-11-15T08:40:50;2.00;2.00;1.00
62778;PMS7003;48821;48.796;2.396;2022-11-15T08:42:01;5.25;2.75;2.00
62778;PMS7003;48821;48.796;2.396;2022-11-15T08:43:12;6.00;3.25;2.50
62778;PMS7003;48821;48.796;2.396;2022-11-15T08:44:22;4.25;2.00;1.75
62778;PMS7003;48821;48.796;2.396;2022-11-15T08:45:34;4.50;2.75;2.00
62778;PMS7003;48821;48.796;2.396;2022-11-15T08:46:45;3.00;1.75;0.75
62778;PMS7003;48821;48.796;2.396;2022-11-15T08:47:56;3.75;3.75;2.75
62778;PMS7003;48821;48.796;2.396;2022-11-15T08:49:06;3.50;3.50;2.75
62778;PMS7003;48821;48.796;2.396;2022-11-15T08:50:17;4.50;2.75;1.75
62778;PMS7003;48821;48.796;2.396;2022-11-15T08:51:27;7.75;6.00;3.75
62778;PMS7003;48821;48.796;2.396;2022-11-15T08:52:37;7.00;6.50;4.00
62778;PMS7003;48821;48.796;2.396;2022-11-15T08:53:48;9.50;9.25;7.25
62778;PMS7003;48821;48.796;2.396;2022-11-15T08:54:58;10.00;7.50;4.75
62778;PMS7003;48821;48.796;2.396;2022-11-15T08:56:09;7.25;5.00;3.00
62778;PMS7003;48821;48.796;2.396;2022-11-15T08:57:21;6.75;3.50;3.00
62778;PMS7003;48821;48.796;2.396;2022-11-15T08:58:31;4.00;3.00;2.00
62778;PMS7003;48821;48.796;2.396;2022-11-15T08:59:41;7.75;4.00;3.00
62778;PMS7003;48821;48.796;2.396;2022-11-15T09:00:52;7.50;7.25;4.75
62778;PMS7003;48821;48.796;2.396;2022-11-15T09:02:02;5.00;3.00;2.00
62778;PMS7003;48821;48.796;2.396;2022-11-15T09:03:13;6.50;4.00;3.75
62778;PMS7003;48821;48.796;2.396;2022-11-15T09:04:23;5.25;3.50;2.50
62778;PMS7003;48821;48.796;2.396;2022-11-15T09:05:35;3.00;3.00;2.75
62778;PMS7003;48821;48.796;2.396;2022-11-15T09:06:47;5.00;4.00;3.00
62778;PMS7003;48821;48.796;2.396;2022-11-15T09:07:57;6.50;3.75;3.50
62778;PMS7003;48821;48.796;2.396;2022-11-15T09:09:08;4.25;4.25;3.00
62778;PMS7003;48821;48.796;2.396;2022-11-15T09:10:18;7.25;3.25;2.75
62778;PMS7003;48821;48.796;2.396;2022-11-15T09:11:28;6.50;3.50;2.50
62778;PMS7003;48821;48.796;2.396;2022-11-15T09:12:39;8.25;4.00;3.00
62778;PMS7003;48821;48.796;2.396;2022-11-15T09:13:49;4.25;3.00;3.00
62778;PMS7003;48821;48.796;2.396;2022-11-15T09:14:59;7.75;5.00;3.50
62778;PMS7003;48821;48.796;2.396;2022-11-15T09:16:10;4.00;4.00;3.00
62778;PMS7003;48821;48.796;2.396;2022-11-15T09:17:22;3.00;3.00;3.00
62778;PMS7003;48821;48.796;2.396;2022-11-15T09:18:33;3.50;3.00;2.00
62778;PMS7003;48821;48.796;2.396;2022-11-15T09:19:44;4.25;3.00;2.50
62778;PMS7003;48821;48.796;2.396;2022-11-15T09:20:55;3.00;3.00;2.00
62778;PMS7003;48821;48.796;2.396;2022-11-15T09:22:07;6.25;4.25;3.00
62778;PMS7003;48821;48.796;2.396;2022-11-15T09:23:18;7.00;4.25;2.50
62778;PMS7003;48821;48.796;2.396;2022-11-15T09:24:28;3.50;2.00;2.00
62778;PMS7003;48821;48.796;2.396;2022-11-15T09:25:38;2.75;2.75;2.00
62778;PMS7003;48821;48.796;2.396;2022-11-15T09:26:49;2.25;1.75;1.00
62778;PMS7003;48821;48.796;2.396;2022-11-15T09:28:03;2.25;2.25;2.00
62778;PMS7003;48821;48.796;2.396;2022-11-15T09:29:16;4.75;3.00;2.00
62778;PMS7003;48821;48.796;2.396;2022-11-15T09:30:27;2.00;2.00;2.00
62778;PMS7003;48821;48.796;2.396;2022-11-15T09:31:37;1.25;1.25;1.25
62778;PMS7003;48821;48.796;2.396;2022-11-15T09:32:47;4.50;2.00;1.25
62778;PMS7003;48821;48.796;2.396;2022-11-15T09:33:58;3.00;1.50;1.00
62778;PMS7003;48821;48.796;2.396;2022-11-15T09:35:08;2.00;2.00;2.00
62778;PMS7003;48821;48.796;2.396;2022-11-15T09:36:19;4.25;1.25;1.00
62778;PMS7003;48821;48.796;2.396;2022-11-15T09:37:31;6.25;3.00;2.75
62778;PMS7003;48821;48.796;2.396;2022-11-15T09:38:42;8.50;3.50;2.75
62778;PMS7003;48821;48.796;2.396;2022-11-15T09:39:52;3.50;2.00;1.00
62778;PMS7003;48821;48.796;2.396;2022-11-15T09:44:02;1.75;1.50;1.00
62778;PMS7003;48821;48.796;2.396;2022-11-15T09:45:26;2.75;2.00;1.50
62778;PMS7003;48821;48.796;2.396;2022-11-15T09:48:33;4.00;1.75;1.00
62778;PMS7003;48821;48.796;2.396;2022-11-15T09:49:51;2.00;2.00;2.00
62778;PMS7003;48821;48.796;2.396;2022-11-15T09:51:04;2.25;2.25;1.50
62778;PMS7003;48821;48.796;2.396;2022-11-15T09:52:18;5.00;2.00;1.50
62778;PMS7003;48821;48.796;2.396;2022-11-15T09:53:32;1.75;1.75;1.50
62778;PMS7003;48821;48.796;2.396;2022-11-15T09:54:47;3.00;3.00;3.00
62778;PMS7003;48821;48.796;2.396;2022-11-15T09:56:01;5.00;3.00;2.00
62778;PMS7003;48821;48.796;2.396;2022-11-15T09:57:14;2.00;2.00;1.00
62778;PMS7003;48821;48.796;2.396;2022-11-15T10:04:26;4.00;3.00;2.00
62778;PMS7003;48821;48.796;2.396;2022-11-15T10:05:39;2.75;2.00;2.00
62778;PMS7003;48821;48.796;2.396;2022-11-15T10:06:54;3.00;3.00;2.00
62778;PMS7003;48821;48.796;2.396;2022-11-15T10:09:59;4.75;3.00;2.50
62778;PMS7003;48821;48.796;2.396;2022-11-15T10:11:15;2.50;2.25;2.00
62778;PMS7003;48821;48.796;2.396;2022-11-15T10:12:29;4.00;3.00;2.50
62778;PMS7003;48821;48.796;2.396;2022-11-15T10:13:41;2.50;2.00;1.00
62778;PMS7003;48821;48.796;2.396;2022-11-15T10:15:00;4.50;2.00;1.75
62778;PMS7003;48821;48.796;2.396;2022-11-15T10:16:19;2.75;2.50;2.00
62778;PMS7003;48821;48.796;2.396;2022-11-15T10:17:36;1.75;1.75;1.50
62778;PMS7003;48821;48.796;2.396;2022-11-15T10:20:25;9.00;4.00;3.00
62778;PMS7003;48821;48.796;2.396;2022-11-15T10:23:06;3.75;3.00;2.50
62778;PMS7003;48821;48.796;2.396;2022-11-15T10:24:25;4.75;3.00;3.00
62778;PMS7003;48821;48.796;2.396;2022-11-15T10:25:39;3.00;3.00;2.50
62778;PMS7003;48821;48.796;2.396;2022-11-15T10:26:50;3.00;3.00;3.00
62778;PMS7003;48821;48.796;2.396;2022-11-15T10:28:01;3.25;3.25;2.00
62778;PMS7003;48821;48.796;2.396;2022-11-15T10:29:18;3.25;1.50;1.25
62778;PMS7003;48821;48.796;2.396;2022-11-15T10:30:33;3.75;3.00;2.50
62778;PMS7003;48821;48.796;2.396;2022-11-15T10:31:46;4.25;2.00;2.00
62778;PMS7003;48821;48.796;2.396;2022-11-15T10:32:57;2.00;2.00;2.00
62778;PMS7003;48821;48.796;2.396;2022-11-15T10:34:11;3.25;2.25;2.00
62778;PMS7003;48821;48.796;2.396;2022-11-15T10:35:29;5.50;4.50;2.00
62778;PMS7003;48821;48.796;2.396;2022-11-15T10:37:13;4.00;4.00;3.00
62778;PMS7003;48821;48.796;2.396;2022-11-15T10:38:16;5.25;2.25;2.00
62778;PMS7003;48821;48.796;2.396;2022-11-15T10:39:27;4.50;4.00;3.25
62778;PMS7003;48821;48.796;2.396;2022-11-15T10:40:39;3.50;2.75;2.00
62778;PMS7003;48821;48.796;2.396;2022-11-15T10:41:50;5.50;4.50;4.00
62778;PMS7003;48821;48.796;2.396;2022-11-15T10:44:28;4.00;3.00;2.25
62778;PMS7003;48821;48.796;2.396;2022-11-15T10:45:39;4.75;4.00;3.00
62778;PMS7003;48821;48.796;2.396;2022-11-15T10:49:24;3.50;2.25;2.00
62778;PMS7003;48821;48.796;2.396;2022-11-15T10:50:42;4.00;3.75;3.00
62778;PMS7003;48821;48.796;2.396;2022-11-15T10:52:01;4.00;4.00;3.75
62778;PMS7003;48821;48.796;2.396;2022-11-15T10:53:31;7.25;3.25;2.50
62778;PMS7003;48821;48.796;2.396;2022-11-15T10:54:55;5.50;4.00;3.00
62778;PMS7003;48821;48.796;2.396;2022-11-15T10:56:11;3.00;3.00;2.75
62778;PMS7003;48821;48.796;2.396;2022-11-15T10:57:27;5.75;4.00;3.00
62778;PMS7003;48821;48.796;2.396;2022-11-15T10:58:50;3.75;3.25;3.00
62778;PMS7003;48821;48.796;2.396;2022-11-15T11:00:05;6.50;5.00;3.75
62778;PMS7003;48821;48.796;2.396;2022-11-15T11:01:28;4.00;4.00;3.00
62778;PMS7003;48821;48.796;2.396;2022-11-15T11:02:45;5.00;4.00;3.00
62778;PMS7003;48821;48.796;2.396;2022-11-15T11:04:07;3.00;2.00;1.00
62778;PMS7003;48821;48.796;2.396;2022-11-15T11:05:35;5.75;3.00;2.25
62778;PMS7003;48821;48.796;2.396;2022-11-15T11:06:52;4.75;3.50;3.00
62778;PMS7003;48821;48.796;2.396;2022-11-15T11:09:36;4.50;4.00;3.75
62778;PMS7003;48821;48.796;2.396;2022-11-15T11:10:55;5.75;4.50;4.00
62778;PMS7003;48821;48.796;2.396;2022-11-15T11:12:09;4.25;4.25;3.25
62778;PMS7003;48821;48.796;2.396;2022-11-15T11:13:25;5.00;4.25;3.75
62778;PMS7003;48821;48.796;2.396;2022-11-15T11:14:37;6.00;5.00;3.00
62778;PMS7003;48821;48.796;2.396;2022-11-15T11:15:51;3.00;3.00;2.50
62778;PMS7003;48821;48.796;2.396;2022-11-15T11:18:30;9.50;5.50;4.50
62778;PMS7003;48821;48.796;2.396;2022-11-15T11:20:06;9.25;7.75;5.25
62778;PMS7003;48821;48.796;2.396;2022-11-15T11:21:22;5.00;5.00;5.00
62778;PMS7003;48821;48.796;2.396;2022-11-15T11:27:06;7.00;6.25;5.00
62778;PMS7003;48821;48.796;2.396;2022-11-15T11:28:25;8.00;7.00;5.25
62778;PMS7003;48821;48.796;2.396;2022-11-15T11:29:53;11.25;7.50;5.50
62778;PMS7003;48821;48.796;2.396;2022-11-15T11:33:01;11.75;6.50;3.75
62778;PMS7003;48821;48.796;2.396;2022-11-15T11:40:40;7.00;7.00;5.25
62778;PMS7003;48821;48.796;2.396;2022-11-15T11:42:08;8.00;5.25;4.25
62778;PMS7003;48821;48.796;2.396;2022-11-15T11:44:43;5.25;5.25;5.00
62778;PMS7003;48821;48.796;2.396;2022-11-15T11:47:39;2.50;2.00;1.00
62778;PMS7003;48821;48.796;2.396;2022-11-15T11:48:58;7.00;5.00;4.00
62778;PMS7003;48821;48.796;2.396;2022-11-15T11:50:21;6.25;6.25;5.00
62778;PMS7003;48821;48.796;2.396;2022-11-15T11:51:41;7.00;7.00;4.25
62778;PMS7003;48821;48.796;2.396;2022-11-15T11:53:02;9.00;7.50;6.00
62778;PMS7003;48821;48.796;2.396;2022-11-15T11:54:46;8.00;7.50;5.25
62778;PMS7003;48821;48.796;2.396;2022-11-15T11:56:01;7.75;5.00;4.00
62778;PMS7003;48821;48.796;2.396;2022-11-15T11:57:22;7.50;6.50;5.00
62778;PMS7003;48821;48.796;2.396;2022-11-15T11:58:40;11.75;8.00;6.00
62778;PMS7003;48821;48.796;2.396;2022-11-15T11:59:56;7.50;6.25;5.00
62778;PMS7003;48821;48.796;2.396;2022-11-15T12:01:15;9.00;7.75;5.00
62778;PMS7003;48821;48.796;2.396;2022-11-15T12:02:30;4.50;4.50;3.75
62778;PMS7003;48821;48.796;2.396;2022-11-15T12:05:26;6.50;6.50;4.00
62778;PMS7003;48821;48.796;2.396;2022-11-15T12:07:07;5.00;4.50;3.00
62778;PMS7003;48821;48.796;2.396;2022-11-15T12:08:29;3.50;3.50;3.25
62778;PMS7003;48821;48.796;2.396;2022-11-15T12:10:15;4.75;4.50;3.25
62778;PMS7003;48821;48.796;2.396;2022-11-15T12:11:49;8.00;5.50;4.75
62778;PMS7003;48821;48.796;2.396;2022-11-15T12:13:04;7.75;7.75;6.75
62778;PMS7003;48821;48.796;2.396;2022-11-15T12:15:39;5.50;5.50;3.75
62778;PMS7003;48821;48.796;2.396;2022-11-15T12:16:53;3.50;3.50;2.25
62778;PMS7003;48821;48.796;2.396;2022-11-15T12:18:03;6.00;5.00;4.00
62778;PMS7003;48821;48.796;2.396;2022-11-15T12:19:15;4.75;4.75;4.00
62778;PMS7003;48821;48.796;2.396;2022-11-15T12:20:26;6.75;6.00;4.75
62778;PMS7003;48821;48.796;2.396;2022-11-15T12:23:13;8.25;6.75;6.00
62778;PMS7003;48821;48.796;2.396;2022-11-15T12:24:34;5.00;5.00;4.00
62778;PMS7003;48821;48.796;2.396;2022-11-15T12:26:00;6.00;4.25;4.00
62778;PMS7003;48821;48.796;2.396;2022-11-15T12:27:51;5.50;4.50;4.00
62778;PMS7003;48821;48.796;2.396;2022-11-15T12:29:11;10.00;7.75;5.00
62778;PMS7003;48821;48.796;2.396;2022-11-15T12:33:41;7.50;4.25;4.00
62778;PMS7003;48821;48.796;2.396;2022-11-15T12:34:54;4.75;4.25;3.75
62778;PMS7003;48821;48.796;2.396;2022-11-15T12:36:09;6.50;5.00;3.75
62778;PMS7003;48821;48.796;2.396;2022-11-15T12:39:04;6.50;5.00;3.75
62778;PMS7003;48821;48.796;2.396;2022-11-15T12:40:26;5.25;5.25;4.00
62778;PMS7003;48821;48.796;2.396;2022-11-15T12:45:42;12.25;7.00;6.25
62778;PMS7003;48821;48.796;2.396;2022-11-15T12:52:08;6.25;6.25;5.00
62778;PMS7003;48821;48.796;2.396;2022-11-15T12:53:26;4.75;4.00;3.75
62778;PMS7003;48821;48.796;2.396;2022-11-15T12:58:27;7.75;5.25;4.50
62778;PMS7003;48821;48.796;2.396;2022-11-15T13:01:09;9.50;8.00;6.25
62778;PMS7003;48821;48.796;2.396;2022-11-15T13:02:21;10.00;8.75;7.25
62778;PMS7003;48821;48.796;2.396;2022-11-15T13:06:58;15.00;10.75;8.00
62778;PMS7003;48821;48.796;2.396;2022-11-15T13:08:10;9.50;9.50;8.25
62778;PMS7003;48821;48.796;2.396;2022-11-15T13:10:46;8.50;8.25;7.25
62778;PMS7003;48821;48.796;2.396;2022-11-15T13:11:47;8.50;8.50;7.25
62778;PMS7003;48821;48.796;2.396;2022-11-15T13:13:00;11.50;10.00;7.00
62778;PMS7003;48821;48.796;2.396;2022-11-15T13:16:00;10.00;8.75;6.50
62778;PMS7003;48821;48.796;2.396;2022-11-15T13:18:44;8.00;6.50;4.75
62778;PMS7003;48821;48.796;2.396;2022-11-15T13:21:23;7.25;6.00;5.25
62778;PMS7003;48821;48.796;2.396;2022-11-15T13:22:58;4.00;4.00;4.00
62778;PMS7003;48821;48.796;2.396;2022-11-15T13:24:12;6.00;5.75;3.75
62778;PMS7003;48821;48.796;2.396;2022-11-15T13:26:55;5.25;5.25;4.00
62778;PMS7003;48821;48.796;2.396;2022-11-15T13:29:24;6.25;6.25;4.25
62778;PMS7003;48821;48.796;2.396;2022-11-15T13:30:35;7.50;5.50;5.00
62778;PMS7003;48821;48.796;2.396;2022-11-15T13:31:47;6.00;6.00;4.25
62778;PMS7003;48821;48.796;2.396;2022-11-15T13:32:58;7.25;7.25;5.00
62778;PMS7003;48821;48.796;2.396;2022-11-15T13:34:28;4.00;2.25;2.00
62778;PMS7003;48821;48.796;2.396;2022-11-15T13:35:46;8.25;6.75;5.25
62778;PMS7003;48821;48.796;2.396;2022-11-15T13:37:00;5.25;5.00;4.00
62778;PMS7003;48821;48.796;2.396;2022-11-15T13:38:17;6.25;5.50;4.50
62778;PMS7003;48821;48.796;2.396;2022-11-15T13:39:34;6.00;5.00;4.00
62778;PMS7003;48821;48.796;2.396;2022-11-15T13:40:47;4.00;4.00;3.25
62778;PMS7003;48821;48.796;2.396;2022-11-15T13:41:57;7.75;5.50;5.00
62778;PMS7003;48821;48.796;2.396;2022-11-15T13:44:31;4.00;3.00;2.75
62778;PMS7003;48821;48.796;2.396;2022-11-15T13:45:42;5.25;4.75;4.00
62778;PMS7003;48821;48.796;2.396;2022-11-15T13:47:18;7.50;6.00;4.00
62778;PMS7003;48821;48.796;2.396;2022-11-15T13:48:29;5.00;5.00;4.00
62778;PMS7003;48821;48.796;2.396;2022-11-15T13:49:39;7.25;5.00;5.00
62778;PMS7003;48821;48.796;2.396;2022-11-15T13:50:50;6.00;6.00;4.75
62778;PMS7003;48821;48.796;2.396;2022-11-15T13:52:04;5.75;4.75;4.00
62778;PMS7003;48821;48.796;2.396;2022-11-15T13:53:20;5.00;5.00;4.00
62778;PMS7003;48821;48.796;2.396;2022-11-15T13:54:42;8.00;6.00;5.00
62778;PMS7003;48821;48.796;2.396;2022-11-15T13:56:14;6.25;6.25;5.00
62778;PMS7003;48821;48.796;2.396;2022-11-15T13:57:36;5.25;5.25;4.00
62778;PMS7003;48821;48.796;2.396;2022-11-15T13:58:51;8.50;6.25;5.00
62778;PMS7003;48821;48.796;2.396;2022-11-15T14:00:05;5.75;5.25;4.00
62778;PMS7003;48821;48.796;2.396;2022-11-15T14:01:32;8.00;5.50;4.00
62778;PMS7003;48821;48.796;2.396;2022-11-15T14:02:43;7.00;5.75;4.50
62778;PMS7003;48821;48.796;2.396;2022-11-15T14:03:57;6.00;5.50;4.00
62778;PMS7003;48821;48.796;2.396;2022-11-15T14:05:16;10.00;6.50;5.00
62778;PMS7003;48821;48.796;2.396;2022-11-15T14:06:29;7.50;7.25;5.25
62778;PMS7003;48821;48.796;2.396;2022-11-15T14:07:41;11.50;10.00;7.00
62778;PMS7003;48821;48.796;2.396;2022-11-15T14:10:31;10.50;9.00;7.75
62778;PMS7003;48821;48.796;2.396;2022-11-15T14:11:55;8.75;8.00;7.25
62778;PMS7003;48821;48.796;2.396;2022-11-15T14:13:10;8.50;8.50;6.75
62778;PMS7003;48821;48.796;2.396;2022-11-15T14:14:44;7.75;7.25;5.25
62778;PMS7003;48821;48.796;2.396;2022-11-15T14:16:12;10.50;8.75;6.50
62778;PMS7003;48821;48.796;2.396;2022-11-15T14:17:41;11.00;9.75;7.75
62778;PMS7003;48821;48.796;2.396;2022-11-15T14:18:52;9.50;8.25;6.00
62778;PMS7003;48821;48.796;2.396;2022-11-15T14:20:18;13.25;9.50;7.50
62778;PMS7003;48821;48.796;2.396;2022-11-15T14:21:30;2.75;2.50;1.75
62778;PMS7003;48821;48.796;2.396;2022-11-15T14:22:50;10.25;10.00;7.25
62778;PMS7003;48821;48.796;2.396;2022-11-15T14:24:17;7.50;7.25;6.00
62778;PMS7003;48821;48.796;2.396;2022-11-15T14:25:30;8.00;6.25;4.75
62778;PMS7003;48821;48.796;2.396;2022-11-15T14:26:41;12.00;9.50;6.25
62778;PMS7003;48821;48.796;2.396;2022-11-15T14:28:09;8.00;7.75;5.50
62778;PMS7003;48821;48.796;2.396;2022-11-15T14:29:28;13.25;8.50;6.75
62778;PMS7003;48821;48.796;2.396;2022-11-15T14:30:40;16.25;16.00;11.75
62778;PMS7003;48821;48.796;2.396;2022-11-15T14:31:51;16.75;11.50;8.00
62778;PMS7003;48821;48.796;2.396;2022-11-15T14:33:11;11.25;10.00;8.00
62778;PMS7003;48821;48.796;2.396;2022-11-15T14:34:26;10.50;9.00;8.00
62778;PMS7003;48821;48.796;2.396;2022-11-15T14:35:37;7.50;7.25;6.00
62778;PMS7003;48821;48.796;2.396;2022-11-15T14:36:48;9.00;9.00;7.00
62778;PMS7003;48821;48.796;2.396;2022-11-15T14:37:59;9.00;8.00;6.00
62778;PMS7003;48821;48.796;2.396;2022-11-15T14:39:09;10.25;9.25;6.25
62778;PMS7003;48821;48.796;2.396;2022-11-15T14:40:21;10.75;7.50;6.00
62778;PMS7003;48821;48.796;2.396;2022-11-15T14:41:34;8.75;7.75;5.00
62778;PMS7003;48821;48.796;2.396;2022-11-15T14:42:49;8.00;7.50;6.25
62778;PMS7003;48821;48.796;2.396;2022-11-15T14:43:59;7.50;7.50;5.75
62778;PMS7003;48821;48.796;2.396;2022-11-15T14:45:16;9.25;7.75;6.00
62778;PMS7003;48821;48.796;2.396;2022-11-15T14:46:29;13.00;9.50;8.50
62778;PMS7003;48821;48.796;2.396;2022-11-15T14:47:40;5.25;4.00;4.00
62778;PMS7003;48821;48.796;2.396;2022-11-15T14:48:51;14.00;10.00;7.25
62778;PMS7003;48821;48.796;2.396;2022-11-15T14:50:01;9.50;9.00;8.00
62778;PMS7003;48821;48.796;2.396;2022-11-15T14:51:12;9.50;8.00;6.00
62778;PMS7003;48821;48.796;2.396;2022-11-15T14:53:37;10.50;8.50;7.25
62778;PMS7003;48821;48.796;2.396;2022-11-15T14:54:49;9.25;9.00;6.00
62778;PMS7003;48821;48.796;2.396;2022-11-15T14:55:59;8.50;5.75;5.00
62778;PMS7003;48821;48.796;2.396;2022-11-15T14:57:10;9.75;8.50;6.50
62778;PMS7003;48821;48.796;2.396;2022-11-15T14:58:20;10.25;10.25;8.50
62778;PMS7003;48821;48.796;2.396;2022-11-15T14:59:30;10.75;7.00;5.50
62778;PMS7003;48821;48.796;2.396;2022-11-15T15:00:41;7.75;7.75;6.25
62778;PMS7003;48821;48.796;2.396;2022-11-15T15:01:51;10.25;7.50;6.50
62778;PMS7003;48821;48.796;2.396;2022-11-15T15:03:02;8.25;8.25;7.25
62778;PMS7003;48821;48.796;2.396;2022-11-15T15:04:13;9.25;8.00;6.00
62778;PMS7003;48821;48.796;2.396;2022-11-15T15:05:25;3.00;0.75;0.00
62778;PMS7003;48821;48.796;2.396;2022-11-15T15:06:39;9.25;8.25;6.50
62778;PMS7003;48821;48.796;2.396;2022-11-15T15:07:50;9.50;8.00;5.00
62778;PMS7003;48821;48.796;2.396;2022-11-15T15:09:02;9.00;7.75;6.00
62778;PMS7003;48821;48.796;2.396;2022-11-15T15:10:13;7.50;7.50;5.50
62778;PMS7003;48821;48.796;2.396;2022-11-15T15:11:25;9.75;7.50;4.25
62778;PMS7003;48821;48.796;2.396;2022-11-15T15:12:38;11.00;7.25;6.25
62778;PMS7003;48821;48.796;2.396;2022-11-15T15:13:49;9.00;9.00;7.25
62778;PMS7003;48821;48.796;2.396;2022-11-15T15:14:59;8.75;6.25;5.50
62778;PMS7003;48821;48.796;2.396;2022-11-15T15:16:10;10.25;8.00;6.75
62778;PMS7003;48821;48.796;2.396;2022-11-15T15:17:20;7.25;7.00;5.25
62778;PMS7003;48821;48.796;2.396;2022-11-15T15:18:30;9.50;8.50;5.75
62778;PMS7003;48821;48.796;2.396;2022-11-15T15:19:41;8.00;7.25;5.00
62778;PMS7003;48821;48.796;2.396;2022-11-15T15:21:01;7.25;7.25;6.00
62778;PMS7003;48821;48.796;2.396;2022-11-15T15:22:18;7.75;7.75;5.75
62778;PMS7003;48821;48.796;2.396;2022-11-15T15:23:31;10.00;8.00;5.75
62778;PMS7003;48821;48.796;2.396;2022-11-15T15:24:42;9.25;9.25;6.75
62778;PMS7003;48821;48.796;2.396;2022-11-15T15:25:53;10.25;9.75;7.50
62778;PMS7003;48821;48.796;2.396;2022-11-15T15:27:03;9.25;8.25;5.50
62778;PMS7003;48821;48.796;2.396;2022-11-15T15:28:14;9.50;8.25;6.00
62778;PMS7003;48821;48.796;2.396;2022-11-15T15:29:24;8.25;8.25;6.00